Time;durP1;ratioP1;P1;durP2;ratioP2;P2;SDS_P1;SDS_P2;PMS_P1;PMS_P2;Temp;Humidity;BMP_temperature;BMP_pressure;BME280_temperature;BME280_humidity;BME280_pressure;Samples;Min_cycle;Max_cycle;Signal;HPM_P1;HPM_P2
2023/02/28 00:00:10;;;;;;;;;19.00;19.00;;;;;;;;4984402;28;8894;-78
2023/02/28 00:02:37;;;;;;;;;25.00;22.33;;;;;;;;4986692;28;8888;-77
2023/02/28 00:05:06;;;;;;;;;22.67;18.00;;;;;;;;4983252;28;8884;-78
2023/02/28 00:07:34;;;;;;;;;20.00;20.00;;;;;;;;4985900;28;8881;-78
2023/02/28 00:10:03;;;;;;;;;27.67;27.67;;;;;;;;4978912;28;8867;-78
2023/02/28 00:12:31;;;;;;;;;24.67;22.33;;;;;;;;4991234;28;8850;-78
2023/02/28 00:14:58;;;;;;;;;23.00;22.00;;;;;;;;4981522;28;8925;-78
2023/02/28 00:17:26;;;;;;;;;31.33;24.33;;;;;;;;4983973;28;8875;-78
2023/02/28 00:19:54;;;;;;;;;16.67;16.67;;;;;;;;4979738;28;8869;-77
2023/02/28 00:22:22;;;;;;;;;24.00;22.33;;;;;;;;4978247;28;8853;-78
2023/02/28 00:24:49;;;;;;;;;26.00;18.00;;;;;;;;4973035;28;8993;-78
2023/02/28 00:27:18;;;;;;;;;25.00;23.00;;;;;;;;4974800;28;8873;-78
2023/02/28 00:29:48;;;;;;;;;20.67;20.00;;;;;;;;4972691;28;8884;-79
2023/02/28 00:32:15;;;;;;;;;26.33;25.67;;;;;;;;4977742;28;8856;-78
2023/02/28 00:34:43;;;;;;;;;30.00;25.67;;;;;;;;4975013;28;8872;-78
2023/02/28 00:37:13;;;;;;;;;26.00;24.00;;;;;;;;4989041;28;8926;-79
2023/02/28 00:39:41;;;;;;;;;29.67;26.67;;;;;;;;4981408;28;8997;-78
2023/02/28 00:42:09;;;;;;;;;22.33;22.33;;;;;;;;4978954;28;8939;-78
2023/02/28 00:44:38;;;;;;;;;25.00;20.67;;;;;;;;4980079;28;8898;-78
2023/02/28 00:47:05;;;;;;;;;28.00;25.00;;;;;;;;4975089;28;8992;-79
2023/02/28 00:49:33;;;;;;;;;26.67;19.67;;;;;;;;4983585;28;8857;-79
2023/02/28 00:52:00;;;;;;;;;34.00;32.00;;;;;;;;4984924;28;8861;-78
2023/02/28 00:54:28;;;;;;;;;30.33;26.00;;;;;;;;4976674;28;9656;-78
2023/02/28 00:56:55;;;;;;;;;23.33;23.00;;;;;;;;4972136;28;8879;-78
2023/02/28 00:59:23;;;;;;;;;27.33;25.00;;;;;;;;4974278;28;9501;-78
2023/02/28 01:01:53;;;;;;;;;23.33;23.33;;;;;;;;4976473;28;9017;-78
2023/02/28 01:04:20;;;;;;;;;17.00;17.00;;;;;;;;4959717;28;8873;-78
2023/02/28 01:06:49;;;;;;;;;21.33;21.33;;;;;;;;4976887;28;8880;-78
2023/02/28 01:09:17;;;;;;;;;20.33;20.33;;;;;;;;4974380;28;8912;-80
2023/02/28 01:11:45;;;;;;;;;27.33;22.67;;;;;;;;4989589;28;8873;-80
2023/02/28 01:14:14;;;;;;;;;22.67;18.00;;;;;;;;4986728;28;8905;-80
2023/02/28 01:16:43;;;;;;;;;16.33;16.33;;;;;;;;4977750;28;8825;-78
2023/02/28 01:19:12;;;;;;;;;29.00;28.33;;;;;;;;4974719;28;8883;-79
2023/02/28 01:21:40;;;;;;;;;19.33;19.33;;;;;;;;4980088;28;9028;-78
2023/02/28 01:24:08;;;;;;;;;32.33;27.33;;;;;;;;4984985;28;8928;-78
2023/02/28 01:29:17;;;;;;;;;27.33;22.67;;;;;;;;4976896;28;8931;-78
2023/02/28 01:31:45;;;;;;;;;19.00;19.00;;;;;;;;4986194;28;8907;-78
2023/02/28 01:34:15;;;;;;;;;22.00;21.00;;;;;;;;4977010;28;9126;-79
2023/02/28 01:36:42;;;;;;;;;18.00;15.67;;;;;;;;4983397;28;8865;-79
2023/02/28 01:39:10;;;;;;;;;18.67;18.00;;;;;;;;4989318;28;8873;-80
2023/02/28 01:41:41;;;;;;;;;23.00;18.67;;;;;;;;4983373;28;8895;-80
2023/02/28 01:44:43;;;;;;;;;26.33;24.33;;;;;;;;4980019;28;8841;-80
2023/02/28 01:47:10;;;;;;;;;11.00;8.33;;;;;;;;4985340;28;8911;-80
2023/02/28 01:49:40;;;;;;;;;19.33;19.33;;;;;;;;4986204;28;8980;-80
2023/02/28 01:52:08;;;;;;;;;16.00;14.00;;;;;;;;4985077;28;8849;-79
2023/02/28 01:54:36;;;;;;;;;26.00;22.00;;;;;;;;4975533;28;9603;-78
2023/02/28 01:57:07;;;;;;;;;12.67;12.33;;;;;;;;4976866;28;9603;-78
2023/02/28 01:59:37;;;;;;;;;18.00;15.00;;;;;;;;4975447;28;8958;-78
2023/02/28 02:02:05;;;;;;;;;24.67;17.67;;;;;;;;4976552;28;9645;-79
2023/02/28 02:04:38;;;;;;;;;21.33;17.67;;;;;;;;4978790;28;8959;-78
2023/02/28 02:07:07;;;;;;;;;20.00;18.67;;;;;;;;4981607;28;8850;-79
2023/02/28 02:09:35;;;;;;;;;31.00;24.33;;;;;;;;4977445;28;9668;-78
2023/02/28 02:12:10;;;;;;;;;24.33;21.67;;;;;;;;4980478;28;8922;-80
2023/02/28 02:14:53;;;;;;;;;28.00;23.00;;;;;;;;4979857;28;8878;-80
2023/02/28 02:17:26;;;;;;;;;22.00;20.33;;;;;;;;4979877;28;8865;-80
2023/02/28 02:20:21;;;;;;;;;24.33;24.33;;;;;;;;4982516;28;8854;-80
2023/02/28 02:23:36;;;;;;;;;28.67;25.67;;;;;;;;4983582;28;8882;-80
2023/02/28 02:26:23;;;;;;;;;25.00;25.00;;;;;;;;4974110;28;8873;-80
2023/02/28 02:29:22;;;;;;;;;19.33;19.33;;;;;;;;4977270;28;8860;-80
2023/02/28 02:32:01;;;;;;;;;20.67;20.33;;;;;;;;4975555;28;8904;-79
2023/02/28 02:34:40;;;;;;;;;18.67;18.67;;;;;;;;4972118;28;8877;-80
2023/02/28 02:37:16;;;;;;;;;22.67;19.67;;;;;;;;4973031;28;8839;-80
2023/02/28 02:39:50;;;;;;;;;34.67;31.00;;;;;;;;4982122;28;8914;-79
2023/02/28 02:42:22;;;;;;;;;34.00;30.67;;;;;;;;4973192;28;8873;-79
2023/02/28 02:44:53;;;;;;;;;22.00;22.00;;;;;;;;4973314;28;8885;-80
2023/02/28 02:47:25;;;;;;;;;21.33;21.33;;;;;;;;4976590;28;8878;-79
2023/02/28 02:49:57;;;;;;;;;29.00;28.00;;;;;;;;4978820;28;8894;-78
2023/02/28 02:52:29;;;;;;;;;30.00;27.00;;;;;;;;4982044;28;9332;-77
2023/02/28 02:54:58;;;;;;;;;32.33;30.33;;;;;;;;4972007;28;8936;-78
2023/02/28 02:57:31;;;;;;;;;13.00;13.00;;;;;;;;4976287;28;8881;-78
2023/02/28 02:59:59;;;;;;;;;24.33;22.00;;;;;;;;4980644;28;8857;-78
2023/02/28 03:02:28;;;;;;;;;24.33;24.33;;;;;;;;4977123;28;9607;-78
2023/02/28 03:05:02;;;;;;;;;23.00;20.67;;;;;;;;4979246;28;8959;-78
2023/02/28 03:07:30;;;;;;;;;26.33;24.33;;;;;;;;4960259;28;8921;-78
2023/02/28 03:09:59;;;;;;;;;32.00;30.33;;;;;;;;4979660;28;8903;-78
2023/02/28 03:12:34;;;;;;;;;25.67;25.67;;;;;;;;4978817;28;8873;-78
2023/02/28 03:15:13;;;;;;;;;24.33;21.00;;;;;;;;4982138;28;9711;-78
2023/02/28 03:17:59;;;;;;;;;27.67;25.67;;;;;;;;4977309;28;8882;-78
2023/02/28 03:20:39;;;;;;;;;25.00;25.00;;;;;;;;4975290;28;8892;-78
2023/02/28 03:23:15;;;;;;;;;24.00;21.67;;;;;;;;4979149;28;8865;-77
2023/02/28 03:25:55;;;;;;;;;26.00;21.33;;;;;;;;4986007;28;8865;-78
2023/02/28 03:28:33;;;;;;;;;29.00;26.67;;;;;;;;4978948;28;8892;-79
2023/02/28 03:31:04;;;;;;;;;23.67;22.67;;;;;;;;4980647;28;8890;-78
2023/02/28 03:33:36;;;;;;;;;26.00;26.00;;;;;;;;4983245;28;8873;-78
2023/02/28 03:36:07;;;;;;;;;25.33;25.33;;;;;;;;4983955;28;8872;-78
2023/02/28 03:38:38;;;;;;;;;37.33;25.33;;;;;;;;4980463;28;8892;-78
2023/02/28 03:41:10;;;;;;;;;31.00;26.33;;;;;;;;4988305;28;8875;-79
2023/02/28 03:43:41;;;;;;;;;33.00;28.00;;;;;;;;4977877;28;8844;-77
2023/02/28 03:46:11;;;;;;;;;26.33;24.33;;;;;;;;4979141;28;8931;-77
2023/02/28 03:48:45;;;;;;;;;33.67;29.00;;;;;;;;4979569;28;8834;-76
2023/02/28 03:51:17;;;;;;;;;37.67;33.00;;;;;;;;4981170;28;8872;-77
2023/02/28 03:53:46;;;;;;;;;34.33;31.33;;;;;;;;4980015;28;8850;-77
2023/02/28 03:56:18;;;;;;;;;35.33;35.33;;;;;;;;4975529;28;8883;-77
2023/02/28 03:58:50;;;;;;;;;28.00;25.00;;;;;;;;4981082;28;8861;-78
2023/02/28 04:01:23;;;;;;;;;32.33;30.00;;;;;;;;4980098;28;8889;-78
2023/02/28 04:03:51;;;;;;;;;29.00;28.67;;;;;;;;4974569;28;8889;-78
2023/02/28 04:06:22;;;;;;;;;29.33;27.00;;;;;;;;4976165;28;8846;-78
2023/02/28 04:08:50;;;;;;;;;31.00;27.00;;;;;;;;4986780;28;8864;-79
2023/02/28 04:11:23;;;;;;;;;20.00;20.00;;;;;;;;4979269;28;8903;-79
2023/02/28 04:13:51;;;;;;;;;26.33;22.67;;;;;;;;4990252;28;8859;-80
2023/02/28 04:16:19;;;;;;;;;31.67;24.33;;;;;;;;4976653;28;8871;-79
2023/02/28 04:18:47;;;;;;;;;35.33;35.33;;;;;;;;4985030;28;8891;-80
2023/02/28 04:21:15;;;;;;;;;44.00;43.00;;;;;;;;4984714;28;8878;-80
2023/02/28 04:23:47;;;;;;;;;40.67;39.00;;;;;;;;4978496;28;8825;-80
2023/02/28 04:26:14;;;;;;;;;34.00;34.00;;;;;;;;4984617;28;8913;-80
2023/02/28 04:28:42;;;;;;;;;35.00;35.00;;;;;;;;4984205;28;8890;-80
2023/02/28 04:31:11;;;;;;;;;36.33;33.33;;;;;;;;4988800;28;8946;-81
2023/02/28 04:33:38;;;;;;;;;34.33;33.00;;;;;;;;4979230;28;8866;-79
2023/02/28 04:36:09;;;;;;;;;27.00;27.00;;;;;;;;4985087;28;8857;-78
2023/02/28 04:38:38;;;;;;;;;54.33;49.33;;;;;;;;4979829;28;8864;-78
2023/02/28 04:41:07;;;;;;;;;30.33;30.33;;;;;;;;4974336;28;8864;-78
2023/02/28 04:43:36;;;;;;;;;40.00;37.67;;;;;;;;4986858;28;8857;-77
2023/02/28 04:46:06;;;;;;;;;34.33;34.33;;;;;;;;4959608;28;8901;-78
2023/02/28 04:48:35;;;;;;;;;37.33;37.33;;;;;;;;4979252;28;8883;-78
2023/02/28 04:51:03;;;;;;;;;37.33;37.33;;;;;;;;4984017;28;8864;-78
2023/02/28 04:53:31;;;;;;;;;40.00;39.50;;;;;;;;4980523;28;8892;-78
2023/02/28 04:55:59;;;;;;;;;40.25;39.75;;;;;;;;4972393;28;8869;-78
2023/02/28 04:58:30;;;;;;;;;41.25;39.75;;;;;;;;4973915;28;8864;-78
2023/02/28 05:01:04;;;;;;;;;44.50;42.00;;;;;;;;4974998;28;8936;-78
2023/02/28 05:03:33;;;;;;;;;47.25;42.75;;;;;;;;4976500;28;8877;-77
2023/02/28 05:06:01;;;;;;;;;47.50;41.50;;;;;;;;4978849;28;8919;-78
2023/02/28 05:08:32;;;;;;;;;41.00;39.00;;;;;;;;4976427;28;8920;-78
2023/02/28 05:11:00;;;;;;;;;40.25;38.00;;;;;;;;4979700;28;8886;-77
2023/02/28 05:13:29;;;;;;;;;52.50;47.00;;;;;;;;4981145;28;8885;-79
2023/02/28 05:15:57;;;;;;;;;46.50;43.50;;;;;;;;4986816;28;8876;-78
2023/02/28 05:18:25;;;;;;;;;40.75;39.00;;;;;;;;4983273;28;8853;-77
2023/02/28 05:20:52;;;;;;;;;43.50;41.75;;;;;;;;4982144;28;8987;-79
2023/02/28 05:23:21;;;;;;;;;40.33;40.33;;;;;;;;4973345;28;8889;-77
2023/02/28 05:25:48;;;;;;;;;36.67;36.67;;;;;;;;4970584;28;8891;-78
2023/02/28 05:28:16;;;;;;;;;44.00;41.33;;;;;;;;4959229;28;8882;-77
2023/02/28 05:30:45;;;;;;;;;47.50;43.50;;;;;;;;4978636;28;8881;-78
2023/02/28 05:33:13;;;;;;;;;47.75;41.50;;;;;;;;4976279;28;8974;-80
2023/02/28 05:35:41;;;;;;;;;50.50;43.25;;;;;;;;4975861;28;8844;-79
2023/02/28 05:38:09;;;;;;;;;49.00;43.75;;;;;;;;4974800;28;8865;-79
2023/02/28 05:40:36;;;;;;;;;45.25;42.00;;;;;;;;4971836;28;8887;-86
2023/02/28 05:43:04;;;;;;;;;41.75;41.00;;;;;;;;4975943;28;8920;-79
2023/02/28 05:45:32;;;;;;;;;33.50;33.50;;;;;;;;4974223;28;9004;-80
2023/02/28 05:48:01;;;;;;;;;41.75;41.25;;;;;;;;4975818;28;8859;-78
2023/02/28 05:50:28;;;;;;;;;40.75;38.75;;;;;;;;4974105;28;8872;-78
2023/02/28 05:52:56;;;;;;;;;46.00;42.00;;;;;;;;4983593;28;8901;-79
2023/02/28 05:55:23;;;;;;;;;31.67;31.67;;;;;;;;4974973;28;9632;-78
2023/02/28 05:57:51;;;;;;;;;52.00;45.75;;;;;;;;4960262;28;8966;-79
2023/02/28 06:00:19;;;;;;;;;40.75;40.00;;;;;;;;4977730;28;8857;-80
2023/02/28 06:02:47;;;;;;;;;26.33;26.33;;;;;;;;4976686;28;8933;-81
2023/02/28 06:05:18;;;;;;;;;49.25;43.50;;;;;;;;4972715;28;8869;-80
2023/02/28 06:07:46;;;;;;;;;47.00;44.00;;;;;;;;4980494;28;8885;-80
2023/02/28 06:10:14;;;;;;;;;44.50;39.75;;;;;;;;4975238;28;8951;-79
2023/02/28 06:12:45;;;;;;;;;45.00;43.00;;;;;;;;4978349;28;8874;-79
2023/02/28 06:15:14;;;;;;;;;41.75;41.25;;;;;;;;4970914;28;8876;-79
2023/02/28 06:20:28;;;;;;;;;39.33;37.33;;;;;;;;4974841;28;8939;-81
2023/02/28 06:22:58;;;;;;;;;48.00;45.50;;;;;;;;4943222;28;8871;-80
2023/02/28 06:25:26;;;;;;;;;43.00;42.25;;;;;;;;4975224;28;8919;-80
2023/02/28 06:27:53;;;;;;;;;52.75;46.50;;;;;;;;4972001;28;8910;-82
2023/02/28 06:30:24;;;;;;;;;41.75;41.00;;;;;;;;4975258;28;8893;-83
2023/02/28 06:32:51;;;;;;;;;41.00;40.67;;;;;;;;4974820;28;8869;-79
2023/02/28 06:35:19;;;;;;;;;32.00;31.25;;;;;;;;4972409;28;8869;-81
2023/02/28 06:37:48;;;;;;;;;43.00;40.75;;;;;;;;4975663;28;8880;-80
2023/02/28 06:40:17;;;;;;;;;51.25;43.75;;;;;;;;4971862;28;8885;-79
2023/02/28 06:42:44;;;;;;;;;42.25;41.25;;;;;;;;4978000;28;8921;-80
2023/02/28 06:45:13;;;;;;;;;43.50;41.75;;;;;;;;4976750;28;8889;-82
2023/02/28 06:47:42;;;;;;;;;43.25;42.25;;;;;;;;4975644;28;8915;-76
2023/02/28 06:50:11;;;;;;;;;43.50;41.50;;;;;;;;4977597;28;8881;-78
2023/02/28 06:52:39;;;;;;;;;45.25;43.00;;;;;;;;4965102;28;8865;-76
2023/02/28 06:55:10;;;;;;;;;53.25;46.75;;;;;;;;4972662;28;8978;-76
2023/02/28 06:57:38;;;;;;;;;65.50;56.25;;;;;;;;4975402;28;8845;-76
2023/02/28 07:00:10;;;;;;;;;49.75;45.00;;;;;;;;4973276;28;8857;-76
2023/02/28 07:02:38;;;;;;;;;46.50;44.50;;;;;;;;4976819;28;8869;-75
2023/02/28 07:05:07;;;;;;;;;45.25;41.00;;;;;;;;4979234;28;8951;-75
2023/02/28 07:07:36;;;;;;;;;35.75;35.75;;;;;;;;4981838;28;8879;-75
2023/02/28 07:10:03;;;;;;;;;44.75;42.75;;;;;;;;4975790;28;8881;-76
2023/02/28 07:12:32;;;;;;;;;41.75;40.00;;;;;;;;4979128;28;8902;-75
2023/02/28 07:15:00;;;;;;;;;52.75;43.00;;;;;;;;4978841;28;8865;-79
2023/02/28 07:17:27;;;;;;;;;43.50;42.25;;;;;;;;4986710;28;8865;-78
2023/02/28 07:19:55;;;;;;;;;31.33;31.33;;;;;;;;4991901;28;8847;-75
2023/02/28 07:22:22;;;;;;;;;42.25;41.50;;;;;;;;4991466;28;8884;-80
2023/02/28 07:24:51;;;;;;;;;49.00;44.00;;;;;;;;5000093;28;8881;-81
2023/02/28 07:27:25;;;;;;;;;46.50;43.50;;;;;;;;4985954;28;8884;-83
2023/02/28 07:29:54;;;;;;;;;45.25;43.00;;;;;;;;4983507;28;8860;-78
2023/02/28 07:32:22;;;;;;;;;50.50;47.00;;;;;;;;4981998;28;8868;-77
2023/02/28 07:34:49;;;;;;;;;48.00;45.00;;;;;;;;4988364;28;8903;-80
2023/02/28 07:37:17;;;;;;;;;59.00;48.00;;;;;;;;4990508;28;9599;-79
2023/02/28 07:39:44;;;;;;;;;48.50;45.75;;;;;;;;4982680;28;8849;-82
2023/02/28 07:42:12;;;;;;;;;60.25;52.00;;;;;;;;4975454;28;8872;-75
2023/02/28 07:44:40;;;;;;;;;48.00;45.00;;;;;;;;4976702;28;8905;-75
2023/02/28 07:47:09;;;;;;;;;32.25;32.25;;;;;;;;4977325;28;8865;-76
2023/02/28 07:49:38;;;;;;;;;47.25;43.50;;;;;;;;4982094;28;8906;-74
2023/02/28 07:52:06;;;;;;;;;49.50;46.25;;;;;;;;4975745;28;8860;-78
2023/02/28 07:54:34;;;;;;;;;47.50;42.75;;;;;;;;4981328;28;8886;-75
2023/02/28 07:57:01;;;;;;;;;44.25;42.75;;;;;;;;4978128;28;8888;-75
2023/02/28 07:59:29;;;;;;;;;51.00;46.50;;;;;;;;4974708;28;8898;-75
2023/02/28 08:01:58;;;;;;;;;43.00;41.75;;;;;;;;4975951;28;8889;-73
2023/02/28 08:04:28;;;;;;;;;46.50;43.50;;;;;;;;4974726;28;8919;-75
2023/02/28 08:06:56;;;;;;;;;40.00;39.33;;;;;;;;4973678;28;8876;-75
2023/02/28 08:09:23;;;;;;;;;45.50;43.75;;;;;;;;4973563;28;8869;-76
2023/02/28 08:11:53;;;;;;;;;40.75;40.25;;;;;;;;4981275;28;8864;-75
2023/02/28 08:14:20;;;;;;;;;44.75;43.00;;;;;;;;4959335;28;8886;-74
2023/02/28 08:16:48;;;;;;;;;53.00;46.33;;;;;;;;4974366;28;8904;-74
2023/02/28 08:19:15;;;;;;;;;46.25;44.00;;;;;;;;4973573;28;8871;-74
2023/02/28 08:21:44;;;;;;;;;48.33;39.67;;;;;;;;4976245;28;8853;-75
2023/02/28 08:24:12;;;;;;;;;51.33;43.00;;;;;;;;4977836;28;8885;-79
2023/02/28 08:26:39;;;;;;;;;44.00;39.00;;;;;;;;4974666;28;8861;-75
2023/02/28 08:29:07;;;;;;;;;44.67;36.00;;;;;;;;4978787;28;9825;-74
2023/02/28 08:31:35;;;;;;;;;44.33;42.00;;;;;;;;4977282;28;8877;-74
2023/02/28 08:34:05;;;;;;;;;43.00;36.33;;;;;;;;4971691;28;8899;-74
2023/02/28 08:36:32;;;;;;;;;46.67;42.33;;;;;;;;4975060;28;8904;-75
2023/02/28 08:39:02;;;;;;;;;38.33;38.33;;;;;;;;4973110;28;8859;-77
2023/02/28 08:41:29;;;;;;;;;35.00;29.67;;;;;;;;4979647;28;8863;-73
2023/02/28 08:43:56;;;;;;;;;45.33;42.00;;;;;;;;4970397;28;8891;-76
2023/02/28 08:46:24;;;;;;;;;39.67;39.00;;;;;;;;4988829;28;8922;-78
2023/02/28 08:48:54;;;;;;;;;35.00;35.00;;;;;;;;4981355;28;8903;-79
2023/02/28 08:51:26;;;;;;;;;36.00;36.00;;;;;;;;4981089;28;8883;-77
2023/02/28 08:53:54;;;;;;;;;34.33;34.33;;;;;;;;4976408;28;8872;-78
2023/02/28 08:56:24;;;;;;;;;30.00;28.67;;;;;;;;4982106;28;8888;-74
2023/02/28 08:58:51;;;;;;;;;38.00;31.33;;;;;;;;4980512;28;8897;-75
2023/02/28 09:01:20;;;;;;;;;22.67;21.67;;;;;;;;4980145;28;8857;-77
2023/02/28 09:03:56;;;;;;;;;27.67;23.67;;;;;;;;4983593;28;8960;-77
2023/02/28 09:06:25;;;;;;;;;23.67;19.67;;;;;;;;4983383;28;9694;-76
2023/02/28 09:08:53;;;;;;;;;30.67;27.67;;;;;;;;4984140;28;8873;-76
2023/02/28 09:11:22;;;;;;;;;30.00;26.67;;;;;;;;4978753;28;8880;-76
2023/02/28 09:13:50;;;;;;;;;26.33;26.33;;;;;;;;4982646;28;8853;-78
2023/02/28 09:16:18;;;;;;;;;21.67;16.67;;;;;;;;4973974;28;8907;-76
2023/02/28 09:18:46;;;;;;;;;26.67;24.33;;;;;;;;4978619;28;8881;-74
2023/02/28 09:21:16;;;;;;;;;23.67;21.33;;;;;;;;4974313;28;8849;-74
2023/02/28 09:23:45;;;;;;;;;21.67;21.67;;;;;;;;4970578;28;11611;-77
2023/02/28 09:26:15;;;;;;;;;28.67;25.33;;;;;;;;4972066;28;11656;-75
2023/02/28 09:28:45;;;;;;;;;23.00;22.00;;;;;;;;4973656;28;11612;-75
2023/02/28 09:31:14;;;;;;;;;16.33;16.33;;;;;;;;4978008;28;11691;-76
2023/02/28 09:33:44;;;;;;;;;27.00;23.00;;;;;;;;4979546;28;11644;-74
2023/02/28 09:36:12;;;;;;;;;21.67;21.67;;;;;;;;4977944;28;11664;-75
2023/02/28 09:38:40;;;;;;;;;22.25;20.00;;;;;;;;4974004;28;11638;-79
2023/02/28 09:41:14;;;;;;;;;23.00;18.50;;;;;;;;4973142;28;11635;-74
2023/02/28 09:43:48;;;;;;;;;21.00;18.00;;;;;;;;4975578;28;11609;-75
2023/02/28 09:46:37;;;;;;;;;20.00;16.25;;;;;;;;4977853;28;11616;-75
2023/02/28 09:49:08;;;;;;;;;18.00;16.25;;;;;;;;4976159;28;11620;-75
2023/02/28 09:51:42;;;;;;;;;23.00;21.00;;;;;;;;4979898;28;11640;-77
2023/02/28 09:54:18;;;;;;;;;16.75;16.75;;;;;;;;4974949;28;11618;-78
2023/02/28 09:56:47;;;;;;;;;16.00;14.75;;;;;;;;4977814;28;12445;-75
2023/02/28 09:59:26;;;;;;;;;17.00;17.00;;;;;;;;4974323;28;12450;-75
2023/02/28 10:01:59;;;;;;;;;15.50;15.50;;;;;;;;4981507;28;11710;-77
2023/02/28 10:04:38;;;;;;;;;18.00;16.50;;;;;;;;4964988;28;11591;-75
2023/02/28 10:07:17;;;;;;;;;15.00;15.00;;;;;;;;4972986;28;12481;-76
2023/02/28 10:09:45;;;;;;;;;15.25;13.75;;;;;;;;4971208;28;11608;-75
2023/02/28 10:12:14;;;;;;;;;19.75;18.00;;;;;;;;4972994;28;11696;-76
2023/02/28 10:14:48;;;;;;;;;23.00;20.75;;;;;;;;4980405;28;11677;-74
2023/02/28 10:17:19;;;;;;;;;23.25;16.50;;;;;;;;4979923;28;11759;-74
2023/02/28 10:19:55;;;;;;;;;13.50;10.50;;;;;;;;4973195;28;11596;-74
2023/02/28 10:22:26;;;;;;;;;17.50;13.25;;;;;;;;4980166;28;11604;-75
2023/02/28 10:24:59;;;;;;;;;17.50;17.50;;;;;;;;4971584;28;12271;-75
2023/02/28 10:27:30;;;;;;;;;19.50;16.50;;;;;;;;4976793;28;11627;-78
2023/02/28 10:30:01;;;;;;;;;18.75;15.50;;;;;;;;4977946;28;11598;-75
2023/02/28 10:32:32;;;;;;;;;16.25;16.25;;;;;;;;4978401;28;12417;-75
2023/02/28 10:35:01;;;;;;;;;11.00;11.00;;;;;;;;4975157;28;11661;-75
2023/02/28 10:37:32;;;;;;;;;17.50;15.50;;;;;;;;4984428;28;11719;-76
2023/02/28 10:39:59;;;;;;;;;12.00;12.00;;;;;;;;4977634;28;11110;-76
2023/02/28 10:42:28;;;;;;;;;16.25;16.25;;;;;;;;4976347;28;11055;-76
2023/02/28 10:45:13;;;;;;;;;3.50;3.50;;;;;;;;4988128;28;11728;-75
2023/02/28 10:47:52;;;;;;;;;6.50;6.50;;;;;;;;4981761;28;11548;-75
2023/02/28 10:50:42;;;;;;;;;8.00;8.00;;;;;;;;4982785;28;11563;-74
2023/02/28 10:53:33;;;;;;;;;7.50;7.50;;;;;;;;4983561;28;11527;-73
2023/02/28 10:56:03;;;;;;;;;9.00;9.00;;;;;;;;4986407;28;11580;-76
2023/02/28 10:58:33;;;;;;;;;9.00;9.00;;;;;;;;4992947;28;11716;-77
2023/02/28 11:01:05;;;;;;;;;7.00;7.00;;;;;;;;4989388;28;11591;-75
2023/02/28 11:03:35;;;;;;;;;8.50;8.50;;;;;;;;4987686;28;11524;-76
2023/02/28 11:06:08;;;;;;;;;10.50;10.50;;;;;;;;4993685;28;11600;-78
2023/02/28 11:08:36;;;;;;;;;11.00;11.00;;;;;;;;4986113;28;11736;-77
2023/02/28 11:11:06;;;;;;;;;12.00;12.00;;;;;;;;4995529;28;11595;-77
2023/02/28 11:13:36;;;;;;;;;11.00;11.00;;;;;;;;4992013;28;11631;-78
2023/02/28 11:16:08;;;;;;;;;17.50;15.75;;;;;;;;4977635;28;11638;-74
2023/02/28 11:18:42;;;;;;;;;11.75;11.75;;;;;;;;4989701;28;11719;-77
2023/02/28 11:21:11;;;;;;;;;11.00;11.00;;;;;;;;4986141;28;12515;-75
2023/02/28 11:23:42;;;;;;;;;13.75;12.00;;;;;;;;4977681;28;11553;-76
2023/02/28 11:26:11;;;;;;;;;11.75;11.75;;;;;;;;4979581;28;11645;-76
2023/02/28 11:28:40;;;;;;;;;9.00;7.50;;;;;;;;4978133;28;11773;-75
2023/02/28 11:31:19;;;;;;;;;8.75;8.75;;;;;;;;4987729;28;11615;-77
2023/02/28 11:33:50;;;;;;;;;9.50;9.50;;;;;;;;4986601;28;11576;-77
2023/02/28 11:36:21;;;;;;;;;9.75;9.00;;;;;;;;4975326;28;11598;-77
2023/02/28 11:38:50;;;;;;;;;12.75;10.50;;;;;;;;4975626;28;11631;-77
2023/02/28 11:41:37;;;;;;;;;7.50;7.50;;;;;;;;4980399;28;11611;-78
2023/02/28 11:44:17;;;;;;;;;8.00;8.00;;;;;;;;4979716;28;11653;-76
2023/02/28 11:46:50;;;;;;;;;6.50;6.50;;;;;;;;4975758;28;11560;-75
2023/02/28 11:49:31;;;;;;;;;8.00;8.00;;;;;;;;4983550;28;12488;-74
2023/02/28 11:52:02;;;;;;;;;15.25;14.00;;;;;;;;4980779;28;11593;-75
2023/02/28 11:54:44;;;;;;;;;14.50;12.50;;;;;;;;4986318;28;11574;-74
2023/02/28 11:57:26;;;;;;;;;11.00;11.00;;;;;;;;4974816;28;11637;-75
2023/02/28 12:00:01;;;;;;;;;15.25;13.50;;;;;;;;4978859;28;11564;-75
2023/02/28 12:02:33;;;;;;;;;12.00;10.75;;;;;;;;4976701;28;11607;-75
2023/02/28 12:05:12;;;;;;;;;17.00;13.50;;;;;;;;4974204;28;12361;-76
2023/02/28 12:07:48;;;;;;;;;12.00;12.00;;;;;;;;4981779;28;12422;-75
2023/02/28 12:10:23;;;;;;;;;15.75;13.00;;;;;;;;4963704;28;11743;-74
2023/02/28 12:13:04;;;;;;;;;13.00;13.00;;;;;;;;4984473;28;11697;-77
2023/02/28 12:15:55;;;;;;;;;13.50;12.25;;;;;;;;4984098;28;11600;-78
2023/02/28 12:18:48;;;;;;;;;14.50;11.50;;;;;;;;4983749;28;11638;-77
2023/02/28 12:21:22;;;;;;;;;9.25;9.25;;;;;;;;4990154;28;11640;-79
2023/02/28 12:24:04;;;;;;;;;13.00;11.75;;;;;;;;4982520;28;11563;-76
2023/02/28 12:26:37;;;;;;;;;12.00;12.00;;;;;;;;4985947;28;11603;-79
2023/02/28 12:29:13;;;;;;;;;8.00;8.00;;;;;;;;4981889;28;11619;-78
2023/02/28 12:31:46;;;;;;;;;11.75;11.75;;;;;;;;4982174;28;11594;-76
2023/02/28 12:34:20;;;;;;;;;11.00;11.00;;;;;;;;4980366;28;11638;-77
2023/02/28 12:36:49;;;;;;;;;8.25;8.25;;;;;;;;4978038;28;11602;-76
2023/02/28 12:39:20;;;;;;;;;13.00;10.50;;;;;;;;4977666;28;11571;-81
2023/02/28 12:41:52;;;;;;;;;11.75;11.75;;;;;;;;4980960;28;11591;-78
2023/02/28 12:44:34;;;;;;;;;10.75;10.25;;;;;;;;4976913;28;11930;-75
2023/02/28 12:47:07;;;;;;;;;12.75;12.75;;;;;;;;4980305;28;11641;-77
2023/02/28 12:49:42;;;;;;;;;9.25;9.25;;;;;;;;4975379;28;11744;-80
2023/02/28 12:52:10;;;;;;;;;10.75;10.75;;;;;;;;4990423;28;11744;-78
2023/02/28 12:54:46;;;;;;;;;9.75;9.75;;;;;;;;4982203;28;11669;-78
2023/02/28 12:57:22;;;;;;;;;8.50;8.50;;;;;;;;4980466;28;11565;-80
2023/02/28 12:59:52;;;;;;;;;9.75;9.75;;;;;;;;4964111;28;11561;-78
2023/02/28 13:02:48;;;;;;;;;12.50;12.50;;;;;;;;4982806;28;11604;-78
2023/02/28 13:05:59;;;;;;;;;9.00;9.00;;;;;;;;4978143;28;11643;-75
2023/02/28 13:08:44;;;;;;;;;8.50;8.50;;;;;;;;4929193;28;11590;-77
2023/02/28 13:11:28;;;;;;;;;9.00;9.00;;;;;;;;4973687;28;11512;-76
2023/02/28 13:14:01;;;;;;;;;8.50;8.50;;;;;;;;4982710;28;11542;-77
2023/02/28 13:16:28;;;;;;;;;12.50;12.50;;;;;;;;4961750;28;11510;-76
2023/02/28 13:19:10;;;;;;;;;10.75;10.75;;;;;;;;4961307;28;12461;-80
2023/02/28 13:21:46;;;;;;;;;9.25;9.25;;;;;;;;4960331;28;11623;-80
2023/02/28 13:24:37;;;;;;;;;13.00;13.00;;;;;;;;4957465;28;11695;-78
2023/02/28 13:27:37;;;;;;;;;11.50;11.50;;;;;;;;4958267;28;11762;-78
2023/02/28 13:30:38;;;;;;;;;17.25;15.50;;;;;;;;4951971;28;11611;-79
2023/02/28 13:33:25;;;;;;;;;14.75;14.25;;;;;;;;4957038;28;11637;-79
2023/02/28 13:36:09;;;;;;;;;14.50;11.25;;;;;;;;4958189;28;11750;-78
2023/02/28 13:38:55;;;;;;;;;14.00;11.00;;;;;;;;4957816;28;11734;-78
2023/02/28 13:41:50;;;;;;;;;12.00;12.00;;;;;;;;4959472;28;11613;-79
2023/02/28 13:44:22;;;;;;;;;9.25;9.25;;;;;;;;4955641;28;12427;-79
2023/02/28 13:47:24;;;;;;;;;14.00;14.00;;;;;;;;4941701;28;11574;-79
2023/02/28 13:49:53;;;;;;;;;12.00;10.75;;;;;;;;4956574;28;11739;-79
2023/02/28 13:52:24;;;;;;;;;11.75;11.00;;;;;;;;4958474;28;11663;-79
2023/02/28 13:55:15;;;;;;;;;10.00;10.00;;;;;;;;4960336;28;11654;-85
2023/02/28 13:57:51;;;;;;;;;9.25;9.25;;;;;;;;4958737;28;11625;-80
2023/02/28 14:00:25;;;;;;;;;13.00;13.00;;;;;;;;4958025;28;12418;-79
2023/02/28 14:03:16;;;;;;;;;11.00;11.00;;;;;;;;4958192;28;11682;-80
2023/02/28 14:05:44;;;;;;;;;13.25;12.25;;;;;;;;4960342;28;11583;-80
2023/02/28 14:08:16;;;;;;;;;9.75;9.75;;;;;;;;4956923;28;12157;-78
2023/02/28 14:10:52;;;;;;;;;10.00;10.00;;;;;;;;4955339;28;11551;-79
2023/02/28 14:13:49;;;;;;;;;11.75;11.75;;;;;;;;4974363;28;11509;-81
2023/02/28 14:16:24;;;;;;;;;11.25;11.25;;;;;;;;4976197;28;11553;-85
2023/02/28 14:18:56;;;;;;;;;12.50;10.00;;;;;;;;4981205;28;11736;-78
2023/02/28 14:21:36;;;;;;;;;11.75;11.75;;;;;;;;4981094;28;12494;-78
2023/02/28 14:24:17;;;;;;;;;15.50;13.25;;;;;;;;4985746;28;11658;-81
2023/02/28 14:27:26;;;;;;;;;13.50;13.50;;;;;;;;4976571;28;12351;-81
2023/02/28 14:30:26;;;;;;;;;14.50;14.50;;;;;;;;4979699;28;11619;-80
2023/02/28 14:33:10;;;;;;;;;10.00;10.00;;;;;;;;4964748;28;11602;-79
2023/02/28 14:35:50;;;;;;;;;13.50;12.75;;;;;;;;4971125;28;11606;-79
2023/02/28 14:38:21;;;;;;;;;15.50;15.50;;;;;;;;4974070;28;11651;-79
2023/02/28 14:40:54;;;;;;;;;20.25;15.75;;;;;;;;4977489;28;11620;-79
2023/02/28 14:43:26;;;;;;;;;19.25;17.75;;;;;;;;4978217;28;11733;-78
2023/02/28 14:45:56;;;;;;;;;16.50;14.25;;;;;;;;4984565;28;11635;-80
2023/02/28 14:48:24;;;;;;;;;13.50;13.50;;;;;;;;4982179;28;11683;-79
2023/02/28 14:50:54;;;;;;;;;15.75;14.00;;;;;;;;4981158;28;11591;-79
2023/02/28 14:53:23;;;;;;;;;14.25;12.25;;;;;;;;4979071;28;11631;-79
2023/02/28 14:55:54;;;;;;;;;14.50;12.25;;;;;;;;4975205;28;12114;-79
2023/02/28 14:58:55;;;;;;;;;10.75;10.75;;;;;;;;4976070;28;11627;-77
2023/02/28 15:01:24;;;;;;;;;13.75;13.75;;;;;;;;4986847;28;11592;-79
2023/02/28 15:04:01;;;;;;;;;11.25;11.25;;;;;;;;4976249;28;11594;-80